Terminal Aerodrome Forecast
Issued by NWS Sterling, VA

Current Version | Previous Version | Graphics & Text | Print | Product List | Glossary On
Versions: 1 2 3 4 5 6 7 8 9 10 11 12 13 14 15 16 17 18 19 20 21
000
FTUS41 KLWX 241100
TAFDCA
TAF
KDCA 241136Z 2412/2512 04005KT P6SM SCT015 BKN070
     FM241400 06007KT P6SM SCT050
     FM250200 12004KT P6SM FEW250
     FM250400 00000KT P6SM FEW250
     FM250600 00000KT P6SM FEW050
     FM250700 00000KT P6SM FEW250=

USA.gov is the U.S. government's official web portal to all federal, state and local government web resources and services.